Imagination — C6FN2 — position and weather

sailwx.info

Track history (hours):
 
Tides and Currents Weather Stations Pressure Air Temp Water Temp Dewpoint Dewpoint Depression Visibility Wind Speed Wind Dir Waves Ship Positions

Imagination

Operator: Carnival Cruise Lines

Last reported at 2019-Aug-20 10:00 UTC. Time now 2019-Aug-20 10:20 UTC.
Position N 32°03' W 117°19'.

Type: Passenger vessel. MMSI: 309933000.

Date/timePositionNaut miles runAvg speedWind from/ knotsBaromVisibWave heightAir tempDewpointWater temp
2019-Aug-20 10:00N 32°03' W 117°19'4 8.7
2019-Aug-20 09:30N 32°06' W 117°23'4 8.7
2019-Aug-20 09:00N 32°09' W 117°26'5 9.0
2019-Aug-20 08:30N 32°12' W 117°30'5 9.1
2019-Aug-20 08:00N 32°15' W 117°34'5294.9
2019-Aug-20 08:00N 32°12' W 117°30'918.7 310 / 111013.010.8 20.016.921.0
2019-Aug-20 07:30N 32°18' W 117°38'5 9.2
2019-Aug-20 07:00N 32°22' W 117°41'5 9.5
2019-Aug-20 06:30N 32°26' W 117°43'5 9.6
2019-Aug-20 06:00N 32°31' W 117°45'3178.0
2019-Aug-20 06:00N 32°30' W 117°42'714.1 340 / 121013.010.8 20.016.920.0
2019-Aug-20 05:30N 32°35' W 117°47'5 9.7
2019-Aug-20 05:00N 32°40' W 117°49'191232.6
2019-Aug-20 05:00N 32°24' W 117°36'2448.8 310 / 131013.010.8 20.016.920.0
2019-Aug-20 04:30N 32°45' W 117°49'5 9.7
2019-Aug-20 04:00N 32°50' W 117°50'5 9.5
2019-Aug-20 03:30N 32°54' W 117°51'5 9.4
2019-Aug-20 03:00N 32°58' W 117°54'5 9.3
2019-Aug-20 02:30N 33°02' W 117°58'5 9.6
2019-Aug-20 02:00N 33°06' W 118°01'5 9.4
2019-Aug-20 01:30N 33°09' W 118°05'5 9.3
2019-Aug-20 01:00N 33°12' W 118°09'5 9.2
2019-Aug-20 00:30N 33°16' W 118°12'4 8.9
2019-Aug-20 00:00N 33°19' W 118°16'3 6.2
2019-Aug-19 23:30N 33°21' W 118°19'0 0.1
2019-Aug-19 23:00N 33°21' W 118°19'0 0.0
2019-Aug-19 22:30N 33°21' W 118°19'0 0.1
2019-Aug-19 22:00N 33°21' W 118°19'0 0.1
2019-Aug-19 21:30N 33°21' W 118°19'0 0.0
2019-Aug-19 20:59N 33°21' W 118°19'0 0.1
2019-Aug-19 20:29N 33°21' W 118°19'0 0.1
2019-Aug-19 19:59N 33°21' W 118°19'0 0.1
2019-Aug-19 19:30N 33°21' W 118°19'0 0.1
2019-Aug-19 19:00N 33°21' W 118°19'0 0.0
2019-Aug-19 18:30N 33°21' W 118°19'0 0.1
2019-Aug-19 18:00N 33°21' W 118°19'0 0.1
2019-Aug-19 17:30N 33°21' W 118°19'0 0.0
2019-Aug-19 17:00N 33°21' W 118°19'0 0.0
2019-Aug-19 16:30N 33°21' W 118°19'0 0.0
2019-Aug-19 16:00N 33°21' W 118°19'0 0.0
2019-Aug-19 15:30N 33°21' W 118°19'0 0.0
2019-Aug-19 15:00N 33°21' W 118°19'0 0.1
2019-Aug-19 14:30N 33°21' W 118°19'0 0.3
2019-Aug-19 14:00N 33°21' W 118°19'3 5.6
2019-Aug-19 13:30N 33°18' W 118°17'4 7.3
2019-Aug-19 13:00N 33°15' W 118°16'4 7.5
2019-Aug-19 12:30N 33°11' W 118°16'4 7.6
2019-Aug-19 12:01N 33°07' W 118°15'4 7.6
2019-Aug-19 11:30N 33°04' W 118°13'4 7.5
2019-Aug-19 11:00N 33°01' W 118°10'4 7.7
2019-Aug-19 10:30N 32°59' W 118°06'4 7.4
2019-Aug-19 10:00N 32°56' W 118°03'4 7.4
2019-Aug-19 09:30N 32°54' W 117°60'4 7.3
2019-Aug-19 09:00N 32°54' W 117°55'6376.8
2019-Aug-19 09:00N 32°48' W 117°54'816.7 290 / 61013.010.8 18.014.819.0
2019-Aug-19 08:30N 32°56' W 117°54'4 7.2
2019-Aug-19 08:00N 32°59' W 117°56'5324.3
2019-Aug-19 08:00N 32°54' W 117°54'918.3 300 / 31013.010.8 19.014.219.0
2019-Aug-19 07:30N 33°02' W 117°57'4 7.4
2019-Aug-19 07:00N 33°06' W 117°59'4 7.6
2019-Aug-19 06:30N 33°09' W 118°00'4 7.9
2019-Aug-19 06:00N 33°13' W 118°03'4 7.4
2019-Aug-19 05:30N 33°16' W 118°04'4 7.3
2019-Aug-19 05:00N 33°20' W 118°06'2125.1
2019-Aug-19 05:00N 33°18' W 118°06'510.8 270 / 71011.010.8 19.014.220.0
2019-Aug-19 04:30N 33°23' W 118°08'4 7.2
2019-Aug-19 04:00N 33°26' W 118°09'4235.0
2019-Aug-19 04:00N 33°24' W 118°06'714.9 310 / 111012.010.8 19.014.222.0
2019-Aug-19 03:30N 33°30' W 118°11'4 8.5
2019-Aug-19 03:00N 33°34' W 118°13'4 7.0
2019-Aug-19 02:30N 33°37' W 118°13'4 8.6
2019-Aug-19 02:00N 33°41' W 118°11'4 6.6
2019-Aug-19 01:28N 33°45' W 118°11'0 0.0
2019-Aug-19 00:55N 33°45' W 118°11'0 0.0
2019-Aug-19 00:28N 33°45' W 118°11'0 0.0
2019-Aug-19 00:00N 33°45' W 118°11'0 0.0
2019-Aug-18 23:30N 33°45' W 118°11'0 0.0
2019-Aug-18 23:00N 33°45' W 118°11'0 0.0
2019-Aug-18 22:30N 33°45' W 118°11'0 0.0
2019-Aug-18 21:57N 33°45' W 118°11'0 0.0
2019-Aug-18 21:29N 33°45' W 118°11'0 0.0
2019-Aug-18 20:47N 33°45' W 118°11'0 0.0
2019-Aug-18 20:29N 33°45' W 118°11'0 0.0
2019-Aug-18 19:59N 33°45' W 118°11'0 0.0
2019-Aug-18 19:25N 33°45' W 118°11'0 0.0
2019-Aug-18 18:58N 33°45' W 118°11'0 0.0
2019-Aug-18 18:28N 33°45' W 118°11'0 0.0
2019-Aug-18 17:58N 33°45' W 118°11'0 0.0
2019-Aug-18 17:28N 33°45' W 118°11'0 0.0
2019-Aug-18 17:00N 33°45' W 118°11'0 0.0
2019-Aug-18 16:30N 33°45' W 118°11'0 0.0
2019-Aug-18 16:00N 33°45' W 118°11'0 0.0
2019-Aug-18 15:30N 33°45' W 118°11'0 0.0
2019-Aug-18 15:00N 33°45' W 118°11'0 0.0
2019-Aug-18 14:26N 33°45' W 118°11'0 0.0
2019-Aug-18 13:56N 33°45' W 118°11'0 0.0
2019-Aug-18 13:29N 33°45' W 118°11'0 0.0
2019-Aug-18 12:59N 33°45' W 118°11'0 0.6
2019-Aug-18 12:28N 33°45' W 118°11'3 5.8
2019-Aug-18 12:00N 33°42' W 118°11'5 9.6
2019-Aug-18 11:30N 33°37' W 118°10'5 9.8
2019-Aug-18 11:00N 33°33' W 118°08'510.0
2019-Aug-18 10:30N 33°28' W 118°06'5 9.0
2019-Aug-18 10:00N 33°24' W 118°04'611.0
2019-Aug-18 09:30N 33°19' W 118°02'611.5
2019-Aug-18 09:00N 33°13' W 117°59'611.4
2019-Aug-18 08:30N 33°08' W 117°57'612.0
2019-Aug-18 08:00N 33°02' W 117°54'1514.6
2019-Aug-18 07:00N 32°49' W 117°49'816.0
2019-Aug-18 06:30N 32°41' W 117°47'816.1
2019-Aug-18 06:00N 32°33' W 117°44'15968.6
2019-Aug-18 06:00N 32°42' W 117°30'1837.9 270 / 61011.010.8 18.014.820.0
2019-Aug-18 05:31N 32°26' W 117°40'816.0
2019-Aug-18 05:00N 32°20' W 117°34'1919.0
2019-Aug-18 04:00N 32°06' W 117°18'1213.8 310 / 71011.010.8 18.014.821.0
2019-Aug-18 03:06N 31°60' W 117°05'18 1.3
2019-Aug-17 13:03N 31°52' W 116°46'0 7.7
2019-Aug-17 13:00N 31°52' W 116°47'3 6.9
2019-Aug-17 12:31N 31°54' W 116°50'4 7.4
2019-Aug-17 12:00N 31°55' W 116°54'4 7.4
2019-Aug-17 11:31N 31°56' W 116°58'4 7.2
2019-Aug-17 11:00N 31°57' W 117°02'4 7.2
2019-Aug-17 10:31N 31°58' W 117°06'3 7.0
2019-Aug-17 10:01N 32°00' W 117°10'3 6.9
2019-Aug-17 09:30N 32°02' W 117°13'3 5.9
2019-Aug-17 09:01N 32°00' W 117°16'3 6.9
2019-Aug-17 08:31N 31°57' W 117°15'4 7.3
2019-Aug-17 08:00N 31°53' W 117°14'4 7.1
2019-Aug-17 07:31N 31°50' W 117°13'3 6.8
2019-Aug-17 07:01N 31°46' W 117°12'3 6.7
2019-Aug-17 06:31N 31°43' W 117°13'3 6.6
2019-Aug-17 06:01N 31°40' W 117°12'2141.9
2019-Aug-17 06:00N 31°42' W 117°12'510.9 350 / 61013.010.8 18.014.821.0
2019-Aug-17 05:30N 31°38' W 117°15'3 6.9
2019-Aug-17 05:01N 31°36' W 117°19'3 6.9
2019-Aug-17 04:30N 31°35' W 117°23'3 6.8
2019-Aug-17 04:00N 31°34' W 117°27'3 7.0
2019-Aug-17 03:31N 31°32' W 117°30'3 6.9
2019-Aug-17 03:00N 31°31' W 117°34'3 7.0
2019-Aug-17 02:31N 31°30' W 117°38'4 7.0
2019-Aug-17 02:00N 31°28' W 117°42'4305.9
2019-Aug-17 02:00N 31°24' W 117°42'4 8.5 340 / 111012.010.8 20.015.319.0
2019-Aug-17 01:31N 31°27' W 117°46'4 7.3
2019-Aug-17 01:00N 31°25' W 117°49'4 7.2
2019-Aug-17 00:31N 31°24' W 117°53'4 7.4
2019-Aug-17 00:00N 31°22' W 117°57'4 7.2
2019-Aug-16 23:31N 31°21' W 118°01'3 6.7
2019-Aug-16 23:01N 31°21' W 118°05'4 7.4
2019-Aug-16 22:30N 31°24' W 118°06'4 7.2
2019-Aug-16 22:00N 31°28' W 118°07'4235.3
2019-Aug-16 22:00N 31°24' W 118°06'715.2 270 / 71013.010.8 18.014.821.0
2019-Aug-16 21:30N 31°31' W 118°08'4 7.6
2019-Aug-16 21:00N 31°35' W 118°09'4 7.5
2019-Aug-16 20:31N 31°39' W 118°10'4 7.5
2019-Aug-16 20:00N 31°42' W 118°10'7447.3
2019-Aug-16 20:00N 31°36' W 118°06'918.3 290 / 121013.010.8 18.014.821.0
2019-Aug-16 19:31N 31°45' W 118°08'4 7.1
2019-Aug-16 19:01N 31°42' W 118°05'8454.0
2019-Aug-16 19:00N 31°36' W 118°00'4 8.8 310 / 61013.010.8 18.011.221.0
2019-Aug-16 18:30N 31°40' W 118°02'3 6.9
2019-Aug-16 18:01N 31°38' W 117°59'3 6.9
2019-Aug-16 17:31N 31°37' W 117°55'3 6.7
2019-Aug-16 17:01N 31°40' W 117°53'4215.2
2019-Aug-16 17:00N 31°36' W 117°54'714.9 310 / 101013.010.8 18.011.221.0
2019-Aug-16 16:30N 31°43' W 117°52'4 8.0
2019-Aug-16 16:01N 31°47' W 117°51'6337.2
2019-Aug-16 16:00N 31°42' W 117°48'918.8 290 / 71013.010.8 18.014.821.0
2019-Aug-16 15:31N 31°51' W 117°50'4 8.5
2019-Aug-16 15:01N 31°55' W 117°49'4 8.4
2019-Aug-16 14:30N 31°59' W 117°48'4 8.3
2019-Aug-16 14:00N 32°03' W 117°46'4 8.2
2019-Aug-16 13:31N 32°07' W 117°46'4 8.2
2019-Aug-16 13:00N 32°11' W 117°46'4 8.3
2019-Aug-16 12:30N 32°16' W 117°47'4 8.3
2019-Aug-16 12:00N 32°20' W 117°47'4 8.2
2019-Aug-16 11:31N 32°24' W 117°47'4 8.1
2019-Aug-16 11:01N 32°28' W 117°48'4 8.2
2019-Aug-16 10:31N 32°32' W 117°48'5 9.2
2019-Aug-16 10:01N 32°36' W 117°48'138.5
2019-Aug-16 10:00N 32°36' W 117°48'5 9.9 220 / 71012.010.8 18.014.821.0
2019-Aug-16 09:30N 32°40' W 117°50'4 8.4
2019-Aug-16 09:00N 32°44' W 117°51'4 8.1
2019-Aug-16 08:31N 32°48' W 117°53'4 8.3
2019-Aug-16 08:00N 32°52' W 117°55'4 8.4
2019-Aug-16 07:31N 32°56' W 117°56'4 8.6
2019-Aug-16 07:00N 33°00' W 117°58'3209.6
2019-Aug-16 07:00N 33°00' W 117°54'613.1 280 / 111012.010.8 18.014.821.0
2019-Aug-16 06:31N 33°04' W 117°60'4 8.5
2019-Aug-16 06:00N 33°08' W 118°01'4 8.5
2019-Aug-16 05:30N 33°12' W 118°03'4 8.1
2019-Aug-16 05:00N 33°16' W 118°05'4 8.3
2019-Aug-16 04:30N 33°20' W 118°06'4 8.6
2019-Aug-16 04:00N 33°24' W 118°08'6388.0
2019-Aug-16 04:00N 33°18' W 118°06'1121.8 320 / 121012.010.8 18.014.822.0
2019-Aug-16 03:30N 33°28' W 118°10'4 8.6
2019-Aug-16 03:00N 33°32' W 118°12'5 9.2
2019-Aug-16 02:30N 33°37' W 118°13'5 9.1
2019-Aug-16 02:00N 33°41' W 118°12'4 8.0
2019-Aug-16 01:30N 33°45' W 118°11'0 0.4
2019-Aug-16 00:58N 33°45' W 118°11'0 0.0
2019-Aug-16 00:28N 33°45' W 118°11'0 0.0
2019-Aug-15 23:58N 33°45' W 118°11'0 0.0
2019-Aug-15 23:28N 33°45' W 118°11'0 0.0
2019-Aug-15 23:00N 33°45' W 118°11'0 0.0
2019-Aug-15 22:30N 33°45' W 118°11'0 0.0
2019-Aug-15 22:00N 33°45' W 118°11'0 0.0
2019-Aug-15 21:30N 33°45' W 118°11'0 0.0
2019-Aug-15 21:00N 33°45' W 118°11'0 0.0
2019-Aug-15 20:29N 33°45' W 118°11'0 0.0
2019-Aug-15 19:59N 33°45' W 118°11'0 0.0
2019-Aug-15 19:29N 33°45' W 118°11'0 0.0
2019-Aug-15 18:59N 33°45' W 118°11'0 0.0
2019-Aug-15 18:28N 33°45' W 118°11'0 0.0
2019-Aug-15 17:58N 33°45' W 118°11'0 0.0
2019-Aug-15 17:28N 33°45' W 118°11'0 0.0
2019-Aug-15 16:58N 33°45' W 118°11'0 0.0
2019-Aug-15 16:28N 33°45' W 118°11'0 0.0
2019-Aug-15 16:00N 33°45' W 118°11'0 0.0
2019-Aug-15 15:30N 33°45' W 118°11'0 0.0
2019-Aug-15 15:00N 33°45' W 118°11'0 0.0
2019-Aug-15 14:30N 33°45' W 118°11'0 0.0
2019-Aug-15 13:59N 33°45' W 118°11'0 0.0
2019-Aug-15 13:29N 33°45' W 118°11'0 0.0
2019-Aug-15 13:01N 33°45' W 118°11'0 0.5
2019-Aug-15 12:30N 33°45' W 118°11'2 4.9
2019-Aug-15 12:01N 33°42' W 118°11'5 9.0
2019-Aug-15 11:31N 33°38' W 118°10'4 7.1
2019-Aug-15 11:00N 33°34' W 118°09'4 7.3
2019-Aug-15 10:31N 33°31' W 118°08'4 7.0
2019-Aug-15 10:00N 33°28' W 118°06'3 6.1
2019-Aug-15 09:30N 33°25' W 118°05'3 6.9
2019-Aug-15 09:01N 33°22' W 118°03'3 6.8
2019-Aug-15 08:30N 33°19' W 118°02'3 6.9
2019-Aug-15 08:00N 33°16' W 118°00'4213.8
2019-Aug-15 08:00N 33°12' W 118°00'2 4.4 350 / 81014.010.8 18.014.821.0
2019-Aug-15 07:31N 33°12' W 117°58'4 7.5
2019-Aug-15 07:00N 33°09' W 117°55'4 7.3
2019-Aug-15 06:30N 33°06' W 117°54'4 7.2
2019-Aug-15 06:00N 33°02' W 117°53'5286.5
2019-Aug-15 06:00N 33°00' W 117°48'3 6.8 300 / 111014.010.8 18.014.821.0
2019-Aug-15 05:30N 32°59' W 117°52'4 7.2
2019-Aug-15 05:00N 32°55' W 117°51'432645.7
2019-Aug-15 05:00N 32°12' W 117°48'4082.2 320 / 131014.010.8 18.014.821.0
2019-Aug-15 04:31N 32°52' W 117°50'4 7.0
2019-Aug-15 04:00N 32°48' W 117°49'169.1
2019-Aug-15 04:00N 32°48' W 117°48'3 6.7 310 / 151014.010.8 18.014.821.0
2019-Aug-15 03:30N 32°45' W 117°49'4 7.1
2019-Aug-15 03:01N 32°41' W 117°48'4 7.5
2019-Aug-15 02:31N 32°38' W 117°48'4 7.5
2019-Aug-15 02:00N 32°34' W 117°46'4 8.7
2019-Aug-15 01:31N 32°30' W 117°43'5 9.0
2019-Aug-15 01:01N 32°27' W 117°40'4 8.6
2019-Aug-15 00:31N 32°23' W 117°38'4 7.4
2019-Aug-15 00:00N 32°20' W 117°36'4 7.3
2019-Aug-14 23:30N 32°17' W 117°33'4 7.4
2019-Aug-14 23:00N 32°14' W 117°31'4 7.3
2019-Aug-14 22:30N 32°11' W 117°28'4 7.3
2019-Aug-14 22:00N 32°08' W 117°25'2147.0
2019-Aug-14 22:00N 32°06' W 117°24'2 3.4 310 / 181014.010.8 18.014.819.0
2019-Aug-14 21:30N 32°05' W 117°22'4 7.8
2019-Aug-14 21:01N 32°02' W 117°19'4 7.5
2019-Aug-14 20:30N 31°59' W 117°17'4 7.2
2019-Aug-14 20:01N 31°56' W 117°14'3 6.6
2019-Aug-14 19:30N 31°54' W 117°17'4 8.2
2019-Aug-14 19:01N 31°52' W 117°21'4 8.5
2019-Aug-14 18:31N 31°50' W 117°26'4 8.8
2019-Aug-14 18:01N 31°49' W 117°30'162.9
2019-Aug-14 18:00N 31°48' W 117°30'5 9.4 310 / 151014.010.8 19.015.919.0
2019-Aug-14 17:31N 31°47' W 117°35'4 8.5
2019-Aug-14 17:00N 31°46' W 117°40'5317.9
2019-Aug-14 17:00N 31°42' W 117°36'715.3 320 / 181014.010.8 17.013.719.0
2019-Aug-14 16:30N 31°44' W 117°44'4 7.9
2019-Aug-14 16:00N 31°43' W 117°49'171.1
2019-Aug-14 16:00N 31°42' W 117°48'4 8.4 330 / 121014.010.8 17.013.719.0
2019-Aug-14 15:30N 31°42' W 117°53'4 7.5
2019-Aug-14 15:00N 31°40' W 117°57'4 7.9
2019-Aug-14 14:30N 31°39' W 118°01'4 7.4
2019-Aug-14 14:00N 31°36' W 118°04'4 7.7
2019-Aug-14 13:30N 31°33' W 118°06'3 6.9
2019-Aug-14 13:00N 31°29' W 118°05'4 7.6
2019-Aug-14 12:30N 31°28' W 118°01'4 7.6
2019-Aug-14 12:00N 31°26' W 117°57'3203.9
2019-Aug-14 12:00N 31°24' W 117°54'1 1.3 340 / 111014.010.8 17.013.719.5
2019-Aug-14 11:30N 31°24' W 117°53'4 7.4
2019-Aug-14 11:00N 31°24' W 117°49'6370388687.4
2019-Aug-14 11:00N 31°24' E 117°48'636913161.2 320 / 111014.010.8 17.013.719.5
2019-Aug-14 10:30N 31°28' W 117°48'4 8.0
2019-Aug-14 10:00N 31°32' W 117°49'4 7.9
2019-Aug-14 09:30N 31°36' W 117°49'4 7.8
2019-Aug-14 09:00N 31°39' W 117°48'4 8.4
2019-Aug-14 08:30N 31°41' W 117°43'4 8.3
2019-Aug-14 08:00N 31°42' W 117°39'4 8.1
2019-Aug-14 07:30N 31°43' W 117°34'4 8.0
2019-Aug-14 07:00N 31°44' W 117°30'4 8.1
2019-Aug-14 06:30N 31°45' W 117°25'4 8.7
2019-Aug-14 06:00N 31°46' W 117°20'5277.1
2019-Aug-14 06:00N 31°42' W 117°18'612.3 340 / 141013.010.8 19.015.921.0
2019-Aug-14 05:30N 31°47' W 117°15'5 9.3
2019-Aug-14 05:00N 31°49' W 117°10'3189.7
2019-Aug-14 05:00N 31°48' W 117°06'2 4.7 340 / 191013.010.8 19.015.921.0
2019-Aug-14 04:30N 31°50' W 117°04'4 8.5
2019-Aug-14 04:00N 31°51' W 116°59'3169.3
2019-Aug-14 04:00N 31°48' W 117°00'710.9 330 / 181013.010.8 19.015.921.0
2019-Aug-14 03:22N 31°52' W 116°53'4 7.2
2019-Aug-14 02:47N 31°53' W 116°49'5 7.6
2019-Aug-14 02:08N 31°51' W 116°44'4 0.3
2019-Aug-13 13:09N 31°52' W 116°47'1 9.0
2019-Aug-13 13:00N 31°53' W 116°49'5 8.9
2019-Aug-13 12:25N 31°55' W 116°54'4 8.8
2019-Aug-13 11:58N 31°56' W 116°59'4 9.4
2019-Aug-13 11:30N 31°57' W 117°04'5 9.5
2019-Aug-13 11:00N 31°59' W 117°09'5 9.5
2019-Aug-13 10:30N 32°00' W 117°14'5 9.5
2019-Aug-13 10:01N 32°03' W 117°19'5 9.4
2019-Aug-13 09:30N 32°06' W 117°23'5 9.3
2019-Aug-13 09:01N 32°09' W 117°27'5 9.4
2019-Aug-13 08:30N 32°12' W 117°31'5 9.5
2019-Aug-13 08:00N 32°15' W 117°36'5 9.8
2019-Aug-13 07:30N 32°19' W 117°39'5 9.9
2019-Aug-13 07:00N 32°23' W 117°42'510.0
2019-Aug-13 06:30N 32°28' W 117°44'611.2
2019-Aug-13 06:00N 32°33' W 117°46'10859.4
2019-Aug-13 06:00N 32°24' W 117°42'1530.9 300 / 31014.010.8 19.015.921.0
2019-Aug-13 05:30N 32°38' W 117°48'5 9.6
2019-Aug-13 05:00N 32°43' W 117°50'2116.3
2019-Aug-13 05:00N 32°42' W 117°48'611.4 260 / 61014.010.8 19.015.921.0
2019-Aug-13 04:30N 32°47' W 117°50'5 9.5
2019-Aug-13 04:01N 32°52' W 117°50'5 9.1
2019-Aug-13 03:31N 32°56' W 117°52'5 9.3
2019-Aug-13 03:01N 32°60' W 117°56'5 9.4
2019-Aug-13 02:31N 33°03' W 117°59'9 9.3
2019-Aug-13 01:31N 33°10' W 118°07'5 9.3
2019-Aug-13 01:00N 33°14' W 118°10'5 9.3
2019-Aug-13 00:30N 33°17' W 118°14'5 9.1
2019-Aug-13 00:01N 33°21' W 118°18'1 2.1
2019-Aug-12 23:30N 33°21' W 118°19'0 0.0
2019-Aug-12 23:00N 33°21' W 118°19'0 0.0
2019-Aug-12 22:30N 33°21' W 118°19'0 0.1
2019-Aug-12 21:59N 33°21' W 118°19'0 0.1
2019-Aug-12 21:29N 33°21' W 118°19'0 0.1
2019-Aug-12 20:59N 33°21' W 118°19'0 0.0
2019-Aug-12 20:29N 33°21' W 118°19'0 0.0
2019-Aug-12 19:55N 33°21' W 118°19'0 0.0
2019-Aug-12 19:28N 33°21' W 118°19'0 0.0
2019-Aug-12 18:58N 33°21' W 118°19'0 0.0
2019-Aug-12 18:28N 33°21' W 118°19'0 0.0
2019-Aug-12 17:55N 33°21' W 118°19'0 0.0
2019-Aug-12 17:30N 33°21' W 118°19'0 0.0
2019-Aug-12 17:00N 33°21' W 118°19'0 0.0
2019-Aug-12 16:30N 33°21' W 118°19'0 0.0
2019-Aug-12 16:00N 33°21' W 118°19'0 0.0
2019-Aug-12 15:27N 33°21' W 118°19'0 0.1
2019-Aug-12 15:00N 33°21' W 118°19'0 0.1
2019-Aug-12 14:30N 33°21' W 118°19'0 0.3
2019-Aug-12 14:00N 33°21' W 118°19'3 6.0
2019-Aug-12 13:30N 33°18' W 118°17'3 6.8
2019-Aug-12 13:00N 33°15' W 118°16'4 7.3
2019-Aug-12 12:30N 33°11' W 118°16'4 7.5
2019-Aug-12 12:00N 33°08' W 118°15'3 6.8
2019-Aug-12 11:30N 33°04' W 118°14'4 7.0
2019-Aug-12 11:00N 33°02' W 118°11'4 7.1
2019-Aug-12 10:30N 32°60' W 118°08'4 7.1
2019-Aug-12 10:00N 32°57' W 118°05'4 7.4
2019-Aug-12 09:30N 32°55' W 118°01'4 7.1
2019-Aug-12 09:00N 32°54' W 117°57'4 7.3
2019-Aug-12 08:30N 32°55' W 117°53'4 7.2
2019-Aug-12 08:00N 32°58' W 117°55'4 7.3
2019-Aug-12 07:30N 33°02' W 117°57'4 8.1
2019-Aug-12 07:00N 33°05' W 117°59'4 7.6
2019-Aug-12 06:30N 33°09' W 118°01'4 7.1
2019-Aug-12 06:00N 33°12' W 118°02'4 7.2
2019-Aug-12 05:30N 33°15' W 118°04'4 7.2
2019-Aug-12 05:00N 33°19' W 118°06'4 7.3
2019-Aug-12 04:30N 33°22' W 118°07'4 7.8
2019-Aug-12 04:00N 33°26' W 118°09'3201.5
2019-Aug-12 04:00N 33°24' W 118°06'713.5 310 / 101013.010.8 19.015.919.0
2019-Aug-12 03:30N 33°29' W 118°11'4 7.7
2019-Aug-12 03:00N 33°33' W 118°12'4 8.3
2019-Aug-12 02:30N 33°37' W 118°13'4 8.7
2019-Aug-12 02:00N 33°41' W 118°12'4 7.3
2019-Aug-12 01:29N 33°45' W 118°11'0 0.0
2019-Aug-12 00:59N 33°45' W 118°11'0 0.0
2019-Aug-12 00:29N 33°45' W 118°11'0 0.0
2019-Aug-11 23:59N 33°45' W 118°11'0 0.0
2019-Aug-11 23:28N 33°45' W 118°11'0 0.0
2019-Aug-11 22:58N 33°45' W 118°11'0 0.0
2019-Aug-11 22:28N 33°45' W 118°11'0 0.0
2019-Aug-11 21:58N 33°45' W 118°11'0 0.0
2019-Aug-11 21:28N 33°45' W 118°11'0 0.0
2019-Aug-11 21:00N 33°45' W 118°11'0 0.0
2019-Aug-11 20:30N 33°45' W 118°11'0 0.0
2019-Aug-11 20:00N 33°45' W 118°11'0 0.0
2019-Aug-11 19:30N 33°45' W 118°11'0 0.0
2019-Aug-11 18:59N 33°45' W 118°11'0 0.0
2019-Aug-11 18:29N 33°45' W 118°11'0 0.0
2019-Aug-11 17:59N 33°45' W 118°11'0 0.0
2019-Aug-11 17:29N 33°45' W 118°11'0 0.0
2019-Aug-11 16:59N 33°45' W 118°11'0 0.0
2019-Aug-11 16:28N 33°45' W 118°11'0 0.0
2019-Aug-11 15:58N 33°45' W 118°11'0 0.0
2019-Aug-11 15:28N 33°45' W 118°11'0 0.0
2019-Aug-11 14:58N 33°45' W 118°11'0 0.0
2019-Aug-11 14:28N 33°45' W 118°11'0 0.0
2019-Aug-11 14:00N 33°45' W 118°11'0 0.0
2019-Aug-11 13:30N 33°45' W 118°11'0 0.0
2019-Aug-11 12:57N 33°45' W 118°11'0 0.7
2019-Aug-11 12:30N 33°45' W 118°11'3 5.1
2019-Aug-11 12:00N 33°42' W 118°11'510.3
2019-Aug-11 11:30N 33°37' W 118°10'510.2
2019-Aug-11 11:00N 33°32' W 118°08'510.3
2019-Aug-11 10:30N 33°28' W 118°06'5 9.3
2019-Aug-11 10:00N 33°23' W 118°04'611.8
2019-Aug-11 09:30N 33°18' W 118°02'611.8
2019-Aug-11 09:00N 33°12' W 117°59'611.9
2019-Aug-11 08:30N 33°07' W 117°56'612.7
2019-Aug-11 08:00N 33°01' W 117°53'815.2
2019-Aug-11 07:31N 32°54' W 117°50'816.1
2019-Aug-11 07:01N 32°46' W 117°49'816.0
2019-Aug-11 06:30N 32°38' W 117°47'816.0
2019-Aug-11 06:01N 32°30' W 117°43'181108.1
2019-Aug-11 06:00N 32°12' W 117°42'1224.9 320 / 151013.010.8 20.015.319.0
2019-Aug-11 05:30N 32°24' W 117°38'816.0
2019-Aug-11 04:59N 32°17' W 117°32'816.3
2019-Aug-11 04:30N 32°12' W 117°26'916.9
2019-Aug-11 04:00N 32°06' W 117°18'313.8 330 / 171013.010.8 20.015.321.0
2019-Aug-11 03:47N 32°05' W 117°15'1315.6
2019-Aug-11 02:58N 31°59' W 117°02'715.4
2019-Aug-11 02:30N 31°55' W 116°54'715.1
2019-Aug-11 02:00N 31°52' W 116°46'1 0.1
2019-Aug-10 12:49N 31°52' W 116°48'2 7.2
2019-Aug-10 12:30N 31°54' W 116°50'4 7.2
2019-Aug-10 12:00N 31°55' W 116°54'4 7.2
2019-Aug-10 11:30N 31°56' W 116°58'4 7.2
2019-Aug-10 11:00N 31°58' W 117°02'4 7.3
2019-Aug-10 10:30N 31°59' W 117°06'  
Track history (hours):
 
Tides and Currents Weather Stations Pressure Air Temp Water Temp Dewpoint Dewpoint Depression Visibility Wind Speed Wind Dir Waves Ship Positions

Imagination

Operator: Carnival Cruise Lines

Last reported at 2019-Aug-20 10:00 UTC. Time now 2019-Aug-20 10:20 UTC.
Position N 32°03' W 117°19'.

Type: Passenger vessel. MMSI: 309933000.

Date/timePositionNaut miles runAvg speedWind from/ knotsBaromVisibWave heightAir tempDewpointWater temp
2019-Aug-20 10:00N 32°03' W 117°19'4 8.7
2019-Aug-20 09:30N 32°06' W 117°23'4 8.7
2019-Aug-20 09:00N 32°09' W 117°26'5 9.0
2019-Aug-20 08:30N 32°12' W 117°30'5 9.1
2019-Aug-20 08:00N 32°15' W 117°34'5294.9
2019-Aug-20 08:00N 32°12' W 117°30'918.7 310 / 111013.010.8 20.016.921.0
2019-Aug-20 07:30N 32°18' W 117°38'5 9.2
2019-Aug-20 07:00N 32°22' W 117°41'5 9.5
2019-Aug-20 06:30N 32°26' W 117°43'5 9.6
2019-Aug-20 06:00N 32°31' W 117°45'3178.0
2019-Aug-20 06:00N 32°30' W 117°42'714.1 340 / 121013.010.8 20.016.920.0
2019-Aug-20 05:30N 32°35' W 117°47'5 9.7
2019-Aug-20 05:00N 32°40' W 117°49'191232.6
2019-Aug-20 05:00N 32°24' W 117°36'2448.8 310 / 131013.010.8 20.016.920.0
2019-Aug-20 04:30N 32°45' W 117°49'5 9.7
2019-Aug-20 04:00N 32°50' W 117°50'5 9.5
2019-Aug-20 03:30N 32°54' W 117°51'5 9.4
2019-Aug-20 03:00N 32°58' W 117°54'5 9.3
2019-Aug-20 02:30N 33°02' W 117°58'5 9.6
2019-Aug-20 02:00N 33°06' W 118°01'5 9.4
2019-Aug-20 01:30N 33°09' W 118°05'5 9.3
2019-Aug-20 01:00N 33°12' W 118°09'5 9.2
2019-Aug-20 00:30N 33°16' W 118°12'4 8.9
2019-Aug-20 00:00N 33°19' W 118°16'3 6.2
2019-Aug-19 23:30N 33°21' W 118°19'0 0.1
2019-Aug-19 23:00N 33°21' W 118°19'0 0.0
2019-Aug-19 22:30N 33°21' W 118°19'0 0.1
2019-Aug-19 22:00N 33°21' W 118°19'0 0.1
2019-Aug-19 21:30N 33°21' W 118°19'0 0.0
2019-Aug-19 20:59N 33°21' W 118°19'0 0.1
2019-Aug-19 20:29N 33°21' W 118°19'0 0.1
2019-Aug-19 19:59N 33°21' W 118°19'0 0.1
2019-Aug-19 19:30N 33°21' W 118°19'0 0.1
2019-Aug-19 19:00N 33°21' W 118°19'0 0.0
2019-Aug-19 18:30N 33°21' W 118°19'0 0.1
2019-Aug-19 18:00N 33°21' W 118°19'0 0.1
2019-Aug-19 17:30N 33°21' W 118°19'0 0.0
2019-Aug-19 17:00N 33°21' W 118°19'0 0.0
2019-Aug-19 16:30N 33°21' W 118°19'0 0.0
2019-Aug-19 16:00N 33°21' W 118°19'0 0.0
2019-Aug-19 15:30N 33°21' W 118°19'0 0.0
2019-Aug-19 15:00N 33°21' W 118°19'0 0.1
2019-Aug-19 14:30N 33°21' W 118°19'0 0.3
2019-Aug-19 14:00N 33°21' W 118°19'3 5.6
2019-Aug-19 13:30N 33°18' W 118°17'4 7.3
2019-Aug-19 13:00N 33°15' W 118°16'4 7.5
2019-Aug-19 12:30N 33°11' W 118°16'4 7.6
2019-Aug-19 12:01N 33°07' W 118°15'4 7.6
2019-Aug-19 11:30N 33°04' W 118°13'4 7.5
2019-Aug-19 11:00N 33°01' W 118°10'4 7.7
2019-Aug-19 10:30N 32°59' W 118°06'4 7.4
2019-Aug-19 10:00N 32°56' W 118°03'4 7.4
2019-Aug-19 09:30N 32°54' W 117°60'4 7.3
2019-Aug-19 09:00N 32°54' W 117°55'6376.8
2019-Aug-19 09:00N 32°48' W 117°54'816.7 290 / 61013.010.8 18.014.819.0
2019-Aug-19 08:30N 32°56' W 117°54'4 7.2
2019-Aug-19 08:00N 32°59' W 117°56'5324.3
2019-Aug-19 08:00N 32°54' W 117°54'918.3 300 / 31013.010.8 19.014.219.0
2019-Aug-19 07:30N 33°02' W 117°57'4 7.4
2019-Aug-19 07:00N 33°06' W 117°59'4 7.6
2019-Aug-19 06:30N 33°09' W 118°00'4 7.9
2019-Aug-19 06:00N 33°13' W 118°03'4 7.4
2019-Aug-19 05:30N 33°16' W 118°04'4 7.3
2019-Aug-19 05:00N 33°20' W 118°06'2125.1
2019-Aug-19 05:00N 33°18' W 118°06'510.8 270 / 71011.010.8 19.014.220.0
2019-Aug-19 04:30N 33°23' W 118°08'4 7.2
2019-Aug-19 04:00N 33°26' W 118°09'4235.0
2019-Aug-19 04:00N 33°24' W 118°06'714.9 310 / 111012.010.8 19.014.222.0
2019-Aug-19 03:30N 33°30' W 118°11'4 8.5
2019-Aug-19 03:00N 33°34' W 118°13'4 7.0
2019-Aug-19 02:30N 33°37' W 118°13'4 8.6
2019-Aug-19 02:00N 33°41' W 118°11'4 6.6
2019-Aug-19 01:28N 33°45' W 118°11'0 0.0
2019-Aug-19 00:55N 33°45' W 118°11'0 0.0
2019-Aug-19 00:28N 33°45' W 118°11'0 0.0
2019-Aug-19 00:00N 33°45' W 118°11'0 0.0
2019-Aug-18 23:30N 33°45' W 118°11'0 0.0
2019-Aug-18 23:00N 33°45' W 118°11'0 0.0
2019-Aug-18 22:30N 33°45' W 118°11'0 0.0
2019-Aug-18 21:57N 33°45' W 118°11'0 0.0
2019-Aug-18 21:29N 33°45' W 118°11'0 0.0
2019-Aug-18 20:47N 33°45' W 118°11'0 0.0
2019-Aug-18 20:29N 33°45' W 118°11'0 0.0
2019-Aug-18 19:59N 33°45' W 118°11'0 0.0
2019-Aug-18 19:25N 33°45' W 118°11'0 0.0
2019-Aug-18 18:58N 33°45' W 118°11'0 0.0
2019-Aug-18 18:28N 33°45' W 118°11'0 0.0
2019-Aug-18 17:58N 33°45' W 118°11'0 0.0
2019-Aug-18 17:28N 33°45' W 118°11'0 0.0
2019-Aug-18 17:00N 33°45' W 118°11'0 0.0
2019-Aug-18 16:30N 33°45' W 118°11'0 0.0
2019-Aug-18 16:00N 33°45' W 118°11'0 0.0
2019-Aug-18 15:30N 33°45' W 118°11'0 0.0
2019-Aug-18 15:00N 33°45' W 118°11'0 0.0
2019-Aug-18 14:26N 33°45' W 118°11'0 0.0
2019-Aug-18 13:56N 33°45' W 118°11'0 0.0
2019-Aug-18 13:29N 33°45' W 118°11'0 0.0
2019-Aug-18 12:59N 33°45' W 118°11'0 0.6
2019-Aug-18 12:28N 33°45' W 118°11'3 5.8
2019-Aug-18 12:00N 33°42' W 118°11'5 9.6
2019-Aug-18 11:30N 33°37' W 118°10'5 9.8
2019-Aug-18 11:00N 33°33' W 118°08'510.0
2019-Aug-18 10:30N 33°28' W 118°06'5 9.0
2019-Aug-18 10:00N 33°24' W 118°04'611.0
2019-Aug-18 09:30N 33°19' W 118°02'611.5
2019-Aug-18 09:00N 33°13' W 117°59'611.4
2019-Aug-18 08:30N 33°08' W 117°57'612.0
2019-Aug-18 08:00N 33°02' W 117°54'1514.6
2019-Aug-18 07:00N 32°49' W 117°49'816.0
2019-Aug-18 06:30N 32°41' W 117°47'816.1
2019-Aug-18 06:00N 32°33' W 117°44'15968.6
2019-Aug-18 06:00N 32°42' W 117°30'1837.9 270 / 61011.010.8 18.014.820.0
2019-Aug-18 05:31N 32°26' W 117°40'816.0
2019-Aug-18 05:00N 32°20' W 117°34'1919.0
2019-Aug-18 04:00N 32°06' W 117°18'1213.8 310 / 71011.010.8 18.014.821.0
2019-Aug-18 03:06N 31°60' W 117°05'18 1.3
2019-Aug-17 13:03N 31°52' W 116°46'0 7.7
2019-Aug-17 13:00N 31°52' W 116°47'3 6.9
2019-Aug-17 12:31N 31°54' W 116°50'4 7.4
2019-Aug-17 12:00N 31°55' W 116°54'4 7.4
2019-Aug-17 11:31N 31°56' W 116°58'4 7.2
2019-Aug-17 11:00N 31°57' W 117°02'4 7.2
2019-Aug-17 10:31N 31°58' W 117°06'3 7.0
2019-Aug-17 10:01N 32°00' W 117°10'3 6.9
2019-Aug-17 09:30N 32°02' W 117°13'3 5.9
2019-Aug-17 09:01N 32°00' W 117°16'3 6.9
2019-Aug-17 08:31N 31°57' W 117°15'4 7.3
2019-Aug-17 08:00N 31°53' W 117°14'4 7.1
2019-Aug-17 07:31N 31°50' W 117°13'3 6.8
2019-Aug-17 07:01N 31°46' W 117°12'3 6.7
2019-Aug-17 06:31N 31°43' W 117°13'3 6.6
2019-Aug-17 06:01N 31°40' W 117°12'2141.9
2019-Aug-17 06:00N 31°42' W 117°12'510.9 350 / 61013.010.8 18.014.821.0
2019-Aug-17 05:30N 31°38' W 117°15'3 6.9
2019-Aug-17 05:01N 31°36' W 117°19'3 6.9
2019-Aug-17 04:30N 31°35' W 117°23'3 6.8
2019-Aug-17 04:00N 31°34' W 117°27'3 7.0
2019-Aug-17 03:31N 31°32' W 117°30'3 6.9
2019-Aug-17 03:00N 31°31' W 117°34'3 7.0
2019-Aug-17 02:31N 31°30' W 117°38'4 7.0
2019-Aug-17 02:00N 31°28' W 117°42'4305.9
2019-Aug-17 02:00N 31°24' W 117°42'4 8.5 340 / 111012.010.8 20.015.319.0
2019-Aug-17 01:31N 31°27' W 117°46'4 7.3
2019-Aug-17 01:00N 31°25' W 117°49'4 7.2
2019-Aug-17 00:31N 31°24' W 117°53'4 7.4
2019-Aug-17 00:00N 31°22' W 117°57'4 7.2
2019-Aug-16 23:31N 31°21' W 118°01'3 6.7
2019-Aug-16 23:01N 31°21' W 118°05'4 7.4
2019-Aug-16 22:30N 31°24' W 118°06'4 7.2
2019-Aug-16 22:00N 31°28' W 118°07'4235.3
2019-Aug-16 22:00N 31°24' W 118°06'715.2 270 / 71013.010.8 18.014.821.0
2019-Aug-16 21:30N 31°31' W 118°08'4 7.6
2019-Aug-16 21:00N 31°35' W 118°09'4 7.5
2019-Aug-16 20:31N 31°39' W 118°10'4 7.5
2019-Aug-16 20:00N 31°42' W 118°10'7447.3
2019-Aug-16 20:00N 31°36' W 118°06'918.3 290 / 121013.010.8 18.014.821.0
2019-Aug-16 19:31N 31°45' W 118°08'4 7.1
2019-Aug-16 19:01N 31°42' W 118°05'8454.0
2019-Aug-16 19:00N 31°36' W 118°00'4 8.8 310 / 61013.010.8 18.011.221.0
2019-Aug-16 18:30N 31°40' W 118°02'3 6.9
2019-Aug-16 18:01N 31°38' W 117°59'3 6.9
2019-Aug-16 17:31N 31°37' W 117°55'3 6.7
2019-Aug-16 17:01N 31°40' W 117°53'4215.2
2019-Aug-16 17:00N 31°36' W 117°54'714.9 310 / 101013.010.8 18.011.221.0
2019-Aug-16 16:30N 31°43' W 117°52'4 8.0
2019-Aug-16 16:01N 31°47' W 117°51'6337.2
2019-Aug-16 16:00N 31°42' W 117°48'918.8 290 / 71013.010.8 18.014.821.0
2019-Aug-16 15:31N 31°51' W 117°50'4 8.5
2019-Aug-16 15:01N 31°55' W 117°49'4 8.4
2019-Aug-16 14:30N 31°59' W 117°48'4 8.3
2019-Aug-16 14:00N 32°03' W 117°46'4 8.2
2019-Aug-16 13:31N 32°07' W 117°46'4 8.2
2019-Aug-16 13:00N 32°11' W 117°46'4 8.3
2019-Aug-16 12:30N 32°16' W 117°47'4 8.3
2019-Aug-16 12:00N 32°20' W 117°47'4 8.2
2019-Aug-16 11:31N 32°24' W 117°47'4 8.1
2019-Aug-16 11:01N 32°28' W 117°48'4 8.2
2019-Aug-16 10:31N 32°32' W 117°48'5 9.2
2019-Aug-16 10:01N 32°36' W 117°48'138.5
2019-Aug-16 10:00N 32°36' W 117°48'5 9.9 220 / 71012.010.8 18.014.821.0
2019-Aug-16 09:30N 32°40' W 117°50'4 8.4
2019-Aug-16 09:00N 32°44' W 117°51'4 8.1
2019-Aug-16 08:31N 32°48' W 117°53'4 8.3
2019-Aug-16 08:00N 32°52' W 117°55'4 8.4
2019-Aug-16 07:31N 32°56' W 117°56'4 8.6
2019-Aug-16 07:00N 33°00' W 117°58'3209.6
2019-Aug-16 07:00N 33°00' W 117°54'613.1 280 / 111012.010.8 18.014.821.0
2019-Aug-16 06:31N 33°04' W 117°60'4 8.5
2019-Aug-16 06:00N 33°08' W 118°01'4 8.5
2019-Aug-16 05:30N 33°12' W 118°03'4 8.1
2019-Aug-16 05:00N 33°16' W 118°05'4 8.3
2019-Aug-16 04:30N 33°20' W 118°06'4 8.6
2019-Aug-16 04:00N 33°24' W 118°08'6388.0
2019-Aug-16 04:00N 33°18' W 118°06'1121.8 320 / 121012.010.8 18.014.822.0
2019-Aug-16 03:30N 33°28' W 118°10'4 8.6
2019-Aug-16 03:00N 33°32' W 118°12'5 9.2
2019-Aug-16 02:30N 33°37' W 118°13'5 9.1
2019-Aug-16 02:00N 33°41' W 118°12'4 8.0
2019-Aug-16 01:30N 33°45' W 118°11'0 0.4
2019-Aug-16 00:58N 33°45' W 118°11'0 0.0
2019-Aug-16 00:28N 33°45' W 118°11'0 0.0
2019-Aug-15 23:58N 33°45' W 118°11'0 0.0
2019-Aug-15 23:28N 33°45' W 118°11'0 0.0
2019-Aug-15 23:00N 33°45' W 118°11'0 0.0
2019-Aug-15 22:30N 33°45' W 118°11'0 0.0
2019-Aug-15 22:00N 33°45' W 118°11'0 0.0
2019-Aug-15 21:30N 33°45' W 118°11'0 0.0
2019-Aug-15 21:00N 33°45' W 118°11'0 0.0
2019-Aug-15 20:29N 33°45' W 118°11'0 0.0
2019-Aug-15 19:59N 33°45' W 118°11'0 0.0
2019-Aug-15 19:29N 33°45' W 118°11'0 0.0
2019-Aug-15 18:59N 33°45' W 118°11'0 0.0
2019-Aug-15 18:28N 33°45' W 118°11'0 0.0
2019-Aug-15 17:58N 33°45' W 118°11'0 0.0
2019-Aug-15 17:28N 33°45' W 118°11'0 0.0
2019-Aug-15 16:58N 33°45' W 118°11'0 0.0
2019-Aug-15 16:28N 33°45' W 118°11'0 0.0
2019-Aug-15 16:00N 33°45' W 118°11'0 0.0
2019-Aug-15 15:30N 33°45' W 118°11'0 0.0
2019-Aug-15 15:00N 33°45' W 118°11'0 0.0
2019-Aug-15 14:30N 33°45' W 118°11'0 0.0
2019-Aug-15 13:59N 33°45' W 118°11'0 0.0
2019-Aug-15 13:29N 33°45' W 118°11'0 0.0
2019-Aug-15 13:01N 33°45' W 118°11'0 0.5
2019-Aug-15 12:30N 33°45' W 118°11'2 4.9
2019-Aug-15 12:01N 33°42' W 118°11'5 9.0
2019-Aug-15 11:31N 33°38' W 118°10'4 7.1
2019-Aug-15 11:00N 33°34' W 118°09'4 7.3
2019-Aug-15 10:31N 33°31' W 118°08'4 7.0
2019-Aug-15 10:00N 33°28' W 118°06'3 6.1
2019-Aug-15 09:30N 33°25' W 118°05'3 6.9
2019-Aug-15 09:01N 33°22' W 118°03'3 6.8
2019-Aug-15 08:30N 33°19' W 118°02'3 6.9
2019-Aug-15 08:00N 33°16' W 118°00'4213.8
2019-Aug-15 08:00N 33°12' W 118°00'2 4.4 350 / 81014.010.8 18.014.821.0
2019-Aug-15 07:31N 33°12' W 117°58'4 7.5
2019-Aug-15 07:00N 33°09' W 117°55'4 7.3
2019-Aug-15 06:30N 33°06' W 117°54'4 7.2
2019-Aug-15 06:00N 33°02' W 117°53'5286.5
2019-Aug-15 06:00N 33°00' W 117°48'3 6.8 300 / 111014.010.8 18.014.821.0
2019-Aug-15 05:30N 32°59' W 117°52'4 7.2
2019-Aug-15 05:00N 32°55' W 117°51'432645.7
2019-Aug-15 05:00N 32°12' W 117°48'4082.2 320 / 131014.010.8 18.014.821.0
2019-Aug-15 04:31N 32°52' W 117°50'4 7.0
2019-Aug-15 04:00N 32°48' W 117°49'169.1
2019-Aug-15 04:00N 32°48' W 117°48'3 6.7 310 / 151014.010.8 18.014.821.0
2019-Aug-15 03:30N 32°45' W 117°49'4 7.1
2019-Aug-15 03:01N 32°41' W 117°48'4 7.5
2019-Aug-15 02:31N 32°38' W 117°48'4 7.5
2019-Aug-15 02:00N 32°34' W 117°46'4 8.7
2019-Aug-15 01:31N 32°30' W 117°43'5 9.0
2019-Aug-15 01:01N 32°27' W 117°40'4 8.6
2019-Aug-15 00:31N 32°23' W 117°38'4 7.4
2019-Aug-15 00:00N 32°20' W 117°36'4 7.3
2019-Aug-14 23:30N 32°17' W 117°33'4 7.4
2019-Aug-14 23:00N 32°14' W 117°31'4 7.3
2019-Aug-14 22:30N 32°11' W 117°28'4 7.3
2019-Aug-14 22:00N 32°08' W 117°25'2147.0
2019-Aug-14 22:00N 32°06' W 117°24'2 3.4 310 / 181014.010.8 18.014.819.0
2019-Aug-14 21:30N 32°05' W 117°22'4 7.8
2019-Aug-14 21:01N 32°02' W 117°19'4 7.5
2019-Aug-14 20:30N 31°59' W 117°17'4 7.2
2019-Aug-14 20:01N 31°56' W 117°14'3 6.6
2019-Aug-14 19:30N 31°54' W 117°17'4 8.2
2019-Aug-14 19:01N 31°52' W 117°21'4 8.5
2019-Aug-14 18:31N 31°50' W 117°26'4 8.8
2019-Aug-14 18:01N 31°49' W 117°30'162.9
2019-Aug-14 18:00N 31°48' W 117°30'5 9.4 310 / 151014.010.8 19.015.919.0
2019-Aug-14 17:31N 31°47' W 117°35'4 8.5
2019-Aug-14 17:00N 31°46' W 117°40'5317.9
2019-Aug-14 17:00N 31°42' W 117°36'715.3 320 / 181014.010.8 17.013.719.0
2019-Aug-14 16:30N 31°44' W 117°44'4 7.9
2019-Aug-14 16:00N 31°43' W 117°49'171.1
2019-Aug-14 16:00N 31°42' W 117°48'4 8.4 330 / 121014.010.8 17.013.719.0
2019-Aug-14 15:30N 31°42' W 117°53'4 7.5
2019-Aug-14 15:00N 31°40' W 117°57'4 7.9
2019-Aug-14 14:30N 31°39' W 118°01'4 7.4
2019-Aug-14 14:00N 31°36' W 118°04'4 7.7
2019-Aug-14 13:30N 31°33' W 118°06'3 6.9
2019-Aug-14 13:00N 31°29' W 118°05'4 7.6
2019-Aug-14 12:30N 31°28' W 118°01'4 7.6
2019-Aug-14 12:00N 31°26' W 117°57'3203.9
2019-Aug-14 12:00N 31°24' W 117°54'1 1.3 340 / 111014.010.8 17.013.719.5
2019-Aug-14 11:30N 31°24' W 117°53'4 7.4
2019-Aug-14 11:00N 31°24' W 117°49'6370388687.4
2019-Aug-14 11:00N 31°24' E 117°48'636913161.2 320 / 111014.010.8 17.013.719.5
2019-Aug-14 10:30N 31°28' W 117°48'4 8.0
2019-Aug-14 10:00N 31°32' W 117°49'4 7.9
2019-Aug-14 09:30N 31°36' W 117°49'4 7.8
2019-Aug-14 09:00N 31°39' W 117°48'4 8.4
2019-Aug-14 08:30N 31°41' W 117°43'4 8.3
2019-Aug-14 08:00N 31°42' W 117°39'4 8.1
2019-Aug-14 07:30N 31°43' W 117°34'4 8.0
2019-Aug-14 07:00N 31°44' W 117°30'4 8.1
2019-Aug-14 06:30N 31°45' W 117°25'4 8.7
2019-Aug-14 06:00N 31°46' W 117°20'5277.1
2019-Aug-14 06:00N 31°42' W 117°18'612.3 340 / 141013.010.8 19.015.921.0
2019-Aug-14 05:30N 31°47' W 117°15'5 9.3
2019-Aug-14 05:00N 31°49' W 117°10'3189.7
2019-Aug-14 05:00N 31°48' W 117°06'2 4.7 340 / 191013.010.8 19.015.921.0
2019-Aug-14 04:30N 31°50' W 117°04'4 8.5
2019-Aug-14 04:00N 31°51' W 116°59'3169.3
2019-Aug-14 04:00N 31°48' W 117°00'710.9 330 / 181013.010.8 19.015.921.0
2019-Aug-14 03:22N 31°52' W 116°53'4 7.2
2019-Aug-14 02:47N 31°53' W 116°49'5 7.6
2019-Aug-14 02:08N 31°51' W 116°44'4 0.3
2019-Aug-13 13:09N 31°52' W 116°47'1 9.0
2019-Aug-13 13:00N 31°53' W 116°49'5 8.9
2019-Aug-13 12:25N 31°55' W 116°54'4 8.8
2019-Aug-13 11:58N 31°56' W 116°59'4 9.4
2019-Aug-13 11:30N 31°57' W 117°04'5 9.5
2019-Aug-13 11:00N 31°59' W 117°09'5 9.5
2019-Aug-13 10:30N 32°00' W 117°14'5 9.5
2019-Aug-13 10:01N 32°03' W 117°19'5 9.4
2019-Aug-13 09:30N 32°06' W 117°23'5 9.3
2019-Aug-13 09:01N 32°09' W 117°27'5 9.4
2019-Aug-13 08:30N 32°12' W 117°31'5 9.5
2019-Aug-13 08:00N 32°15' W 117°36'5 9.8
2019-Aug-13 07:30N 32°19' W 117°39'5 9.9
2019-Aug-13 07:00N 32°23' W 117°42'510.0
2019-Aug-13 06:30N 32°28' W 117°44'611.2
2019-Aug-13 06:00N 32°33' W 117°46'10859.4
2019-Aug-13 06:00N 32°24' W 117°42'1530.9 300 / 31014.010.8 19.015.921.0
2019-Aug-13 05:30N 32°38' W 117°48'5 9.6
2019-Aug-13 05:00N 32°43' W 117°50'2116.3
2019-Aug-13 05:00N 32°42' W 117°48'611.4 260 / 61014.010.8 19.015.921.0
2019-Aug-13 04:30N 32°47' W 117°50'5 9.5
2019-Aug-13 04:01N 32°52' W 117°50'5 9.1
2019-Aug-13 03:31N 32°56' W 117°52'5 9.3
2019-Aug-13 03:01N 32°60' W 117°56'5 9.4
2019-Aug-13 02:31N 33°03' W 117°59'9 9.3
2019-Aug-13 01:31N 33°10' W 118°07'5 9.3
2019-Aug-13 01:00N 33°14' W 118°10'5 9.3
2019-Aug-13 00:30N 33°17' W 118°14'5 9.1
2019-Aug-13 00:01N 33°21' W 118°18'1 2.1
2019-Aug-12 23:30N 33°21' W 118°19'0 0.0
2019-Aug-12 23:00N 33°21' W 118°19'0 0.0
2019-Aug-12 22:30N 33°21' W 118°19'0 0.1
2019-Aug-12 21:59N 33°21' W 118°19'0 0.1
2019-Aug-12 21:29N 33°21' W 118°19'0 0.1
2019-Aug-12 20:59N 33°21' W 118°19'0 0.0
2019-Aug-12 20:29N 33°21' W 118°19'0 0.0
2019-Aug-12 19:55N 33°21' W 118°19'0 0.0
2019-Aug-12 19:28N 33°21' W 118°19'0 0.0
2019-Aug-12 18:58N 33°21' W 118°19'0 0.0
2019-Aug-12 18:28N 33°21' W 118°19'0 0.0
2019-Aug-12 17:55N 33°21' W 118°19'0 0.0
2019-Aug-12 17:30N 33°21' W 118°19'0 0.0
2019-Aug-12 17:00N 33°21' W 118°19'0 0.0
2019-Aug-12 16:30N 33°21' W 118°19'0 0.0
2019-Aug-12 16:00N 33°21' W 118°19'0 0.0
2019-Aug-12 15:27N 33°21' W 118°19'0 0.1
2019-Aug-12 15:00N 33°21' W 118°19'0 0.1
2019-Aug-12 14:30N 33°21' W 118°19'0 0.3
2019-Aug-12 14:00N 33°21' W 118°19'3 6.0
2019-Aug-12 13:30N 33°18' W 118°17'3 6.8
2019-Aug-12 13:00N 33°15' W 118°16'4 7.3
2019-Aug-12 12:30N 33°11' W 118°16'4 7.5
2019-Aug-12 12:00N 33°08' W 118°15'3 6.8
2019-Aug-12 11:30N 33°04' W 118°14'4 7.0
2019-Aug-12 11:00N 33°02' W 118°11'4 7.1
2019-Aug-12 10:30N 32°60' W 118°08'4 7.1
2019-Aug-12 10:00N 32°57' W 118°05'4 7.4
2019-Aug-12 09:30N 32°55' W 118°01'4 7.1
2019-Aug-12 09:00N 32°54' W 117°57'4 7.3
2019-Aug-12 08:30N 32°55' W 117°53'4 7.2
2019-Aug-12 08:00N 32°58' W 117°55'4 7.3
2019-Aug-12 07:30N 33°02' W 117°57'4 8.1
2019-Aug-12 07:00N 33°05' W 117°59'4 7.6
2019-Aug-12 06:30N 33°09' W 118°01'4 7.1
2019-Aug-12 06:00N 33°12' W 118°02'4 7.2
2019-Aug-12 05:30N 33°15' W 118°04'4 7.2
2019-Aug-12 05:00N 33°19' W 118°06'4 7.3
2019-Aug-12 04:30N 33°22' W 118°07'4 7.8
2019-Aug-12 04:00N 33°26' W 118°09'3201.5
2019-Aug-12 04:00N 33°24' W 118°06'713.5 310 / 101013.010.8 19.015.919.0
2019-Aug-12 03:30N 33°29' W 118°11'4 7.7
2019-Aug-12 03:00N 33°33' W 118°12'4 8.3
2019-Aug-12 02:30N 33°37' W 118°13'4 8.7
2019-Aug-12 02:00N 33°41' W 118°12'4 7.3
2019-Aug-12 01:29N 33°45' W 118°11'0 0.0
2019-Aug-12 00:59N 33°45' W 118°11'0 0.0
2019-Aug-12 00:29N 33°45' W 118°11'0 0.0
2019-Aug-11 23:59N 33°45' W 118°11'0 0.0
2019-Aug-11 23:28N 33°45' W 118°11'0 0.0
2019-Aug-11 22:58N 33°45' W 118°11'0 0.0
2019-Aug-11 22:28N 33°45' W 118°11'0 0.0
2019-Aug-11 21:58N 33°45' W 118°11'0 0.0
2019-Aug-11 21:28N 33°45' W 118°11'0 0.0
2019-Aug-11 21:00N 33°45' W 118°11'0 0.0
2019-Aug-11 20:30N 33°45' W 118°11'0 0.0
2019-Aug-11 20:00N 33°45' W 118°11'0 0.0
2019-Aug-11 19:30N 33°45' W 118°11'0 0.0
2019-Aug-11 18:59N 33°45' W 118°11'0 0.0
2019-Aug-11 18:29N 33°45' W 118°11'0 0.0
2019-Aug-11 17:59N 33°45' W 118°11'0 0.0
2019-Aug-11 17:29N 33°45' W 118°11'0 0.0
2019-Aug-11 16:59N 33°45' W 118°11'0 0.0
2019-Aug-11 16:28N 33°45' W 118°11'0 0.0
2019-Aug-11 15:58N 33°45' W 118°11'0 0.0
2019-Aug-11 15:28N 33°45' W 118°11'0 0.0
2019-Aug-11 14:58N 33°45' W 118°11'0 0.0
2019-Aug-11 14:28N 33°45' W 118°11'0 0.0
2019-Aug-11 14:00N 33°45' W 118°11'0 0.0
2019-Aug-11 13:30N 33°45' W 118°11'0 0.0
2019-Aug-11 12:57N 33°45' W 118°11'0 0.7
2019-Aug-11 12:30N 33°45' W 118°11'3 5.1
2019-Aug-11 12:00N 33°42' W 118°11'510.3
2019-Aug-11 11:30N 33°37' W 118°10'510.2
2019-Aug-11 11:00N 33°32' W 118°08'510.3
2019-Aug-11 10:30N 33°28' W 118°06'5 9.3
2019-Aug-11 10:00N 33°23' W 118°04'611.8
2019-Aug-11 09:30N 33°18' W 118°02'611.8
2019-Aug-11 09:00N 33°12' W 117°59'611.9
2019-Aug-11 08:30N 33°07' W 117°56'612.7
2019-Aug-11 08:00N 33°01' W 117°53'815.2
2019-Aug-11 07:31N 32°54' W 117°50'816.1
2019-Aug-11 07:01N 32°46' W 117°49'816.0
2019-Aug-11 06:30N 32°38' W 117°47'816.0
2019-Aug-11 06:01N 32°30' W 117°43'181108.1
2019-Aug-11 06:00N 32°12' W 117°42'1224.9 320 / 151013.010.8 20.015.319.0
2019-Aug-11 05:30N 32°24' W 117°38'816.0
2019-Aug-11 04:59N 32°17' W 117°32'816.3
2019-Aug-11 04:30N 32°12' W 117°26'916.9
2019-Aug-11 04:00N 32°06' W 117°18'313.8 330 / 171013.010.8 20.015.321.0
2019-Aug-11 03:47N 32°05' W 117°15'1315.6
2019-Aug-11 02:58N 31°59' W 117°02'715.4
2019-Aug-11 02:30N 31°55' W 116°54'715.1
2019-Aug-11 02:00N 31°52' W 116°46'1 0.1
2019-Aug-10 12:49N 31°52' W 116°48'2 7.2
2019-Aug-10 12:30N 31°54' W 116°50'4 7.2
2019-Aug-10 12:00N 31°55' W 116°54'4 7.2
2019-Aug-10 11:30N 31°56' W 116°58'4 7.2
2019-Aug-10 11:00N 31°58' W 117°02'4 7.3
2019-Aug-10 10:30N 31°59' W 117°06'  

Dump ship's entire track history